createdAt,value
2023-02-21T00:02:44.782Z,13.07
2023-02-21T00:08:14.906Z,8.03
2023-02-21T00:11:00.390Z,12.38
2023-02-21T00:13:45.682Z,15.30
2023-02-21T00:19:21.173Z,10.97
2023-02-21T00:22:06.164Z,7.33
2023-02-21T00:24:51.579Z,11.07
2023-02-21T00:27:36.734Z,10.37
2023-02-21T00:33:08.217Z,12.68
2023-02-21T00:35:53.610Z,9.23
2023-02-21T00:38:38.864Z,14.10
2023-02-21T00:44:09.582Z,8.45
2023-02-21T00:46:54.903Z,7.07
2023-02-21T00:49:39.908Z,12.60
2023-02-21T00:52:25.283Z,14.15
2023-02-21T00:55:10.900Z,12.20
2023-02-21T00:57:55.786Z,10.63
2023-02-21T01:00:43.041Z,11.27
2023-02-21T01:03:28.628Z,6.70
2023-02-21T01:06:14.437Z,9.63
2023-02-21T01:09:04.408Z,7.03
2023-02-21T01:11:50.515Z,10.90
2023-02-21T01:14:36.035Z,15.30
2023-02-21T01:17:21.723Z,14.07
2023-02-21T01:20:06.762Z,8.37
2023-02-21T01:22:52.344Z,9.00
2023-02-21T01:25:37.571Z,10.13
2023-02-21T01:31:08.495Z,18.25
2023-02-21T01:33:58.828Z,16.27
2023-02-21T01:36:44.240Z,12.10
2023-02-21T01:39:30.470Z,6.63
2023-02-21T01:42:16.300Z,8.33
2023-02-21T01:45:03.619Z,7.23
2023-02-21T01:47:49.654Z,7.17
2023-02-21T01:50:42.336Z,6.53
2023-02-21T01:53:35.137Z,6.53
2023-02-21T01:56:21.176Z,7.53
2023-02-21T01:59:09.358Z,7.53
2023-02-21T02:02:00.785Z,9.57
2023-02-21T02:04:45.979Z,6.60
2023-02-21T02:10:16.263Z,8.10
2023-02-21T02:12:59.216Z,9.57
2023-02-21T02:15:57.992Z,17.80
2023-02-21T02:18:40.939Z,9.50
2023-02-21T02:21:33.458Z,7.27
2023-02-21T02:24:12.409Z,9.47
2023-02-21T02:27:08.217Z,8.47
2023-02-21T02:30:03.049Z,15.90
2023-02-21T02:32:49.585Z,10.90
2023-02-21T02:35:21.905Z,10.10
2023-02-21T02:38:02.344Z,10.40
2023-02-21T02:40:47.620Z,9.80
2023-02-21T02:43:31.860Z,11.87
2023-02-21T02:46:01.432Z,11.53
2023-02-21T02:48:40.401Z,14.70
2023-02-21T02:51:11.419Z,13.43
2023-02-21T02:53:38.507Z,12.73
2023-02-21T02:56:11.503Z,15.50
2023-02-21T02:58:42.377Z,16.53
2023-02-21T03:01:33.619Z,20.00
2023-02-21T03:04:31.026Z,16.67
2023-02-21T03:07:23.436Z,11.83
2023-02-21T03:10:36.004Z,10.87
2023-02-21T03:13:08.371Z,11.23
2023-02-21T03:15:41.091Z,11.23
2023-02-21T03:18:14.429Z,10.97
2023-02-21T03:20:43.661Z,10.67
2023-02-21T03:23:14.708Z,16.13
2023-02-21T03:25:42.712Z,16.27
2023-02-21T03:28:09.600Z,17.10
2023-02-21T03:30:36.421Z,16.23
2023-02-21T03:33:03.380Z,15.33
2023-02-21T03:35:30.575Z,22.03
2023-02-21T03:37:58.641Z,18.57
2023-02-21T03:40:34.706Z,17.40
2023-02-21T03:43:02.703Z,22.33
2023-02-21T03:45:29.527Z,17.53
2023-02-21T03:47:56.276Z,21.83
2023-02-21T03:50:22.970Z,37.47
2023-02-21T03:52:49.674Z,21.93
2023-02-21T03:55:16.802Z,20.70
2023-02-21T03:57:43.518Z,18.47
2023-02-21T04:00:11.618Z,22.40
2023-02-21T04:02:38.302Z,21.23
2023-02-21T04:05:05.540Z,23.63
2023-02-21T04:07:32.199Z,25.83
2023-02-21T04:09:58.839Z,25.57
2023-02-21T04:12:26.190Z,25.73
2023-02-21T04:14:52.927Z,26.23
2023-02-21T04:17:19.667Z,21.80
2023-02-21T04:19:46.369Z,22.80
2023-02-21T04:22:13.705Z,25.97
2023-02-21T04:24:40.439Z,30.23
2023-02-21T04:27:07.563Z,41.80
2023-02-21T04:29:35.321Z,39.17
2023-02-21T04:32:03.376Z,40.00
2023-02-21T04:34:30.112Z,30.43
2023-02-21T04:36:57.044Z,33.83
2023-02-21T04:39:23.843Z,29.93
2023-02-21T04:41:50.560Z,29.20
2023-02-21T04:44:18.370Z,25.93
2023-02-21T04:46:45.178Z,27.50
2023-02-21T04:49:15.501Z,32.10
2023-02-21T04:51:42.614Z,31.77
2023-02-21T04:54:09.414Z,30.97
2023-02-21T04:56:37.656Z,29.60
2023-02-21T04:59:04.558Z,33.63
2023-02-21T05:01:31.683Z,21.97
2023-02-21T05:03:59.726Z,26.93
2023-02-21T05:06:28.220Z,22.23
2023-02-21T05:08:54.946Z,18.23
2023-02-21T05:11:23.052Z,24.93
2023-02-21T05:13:50.071Z,35.37
2023-02-21T05:16:17.417Z,32.23
2023-02-21T05:18:45.985Z,25.10
2023-02-21T05:21:13.576Z,23.60
2023-02-21T05:23:41.190Z,28.97
2023-02-21T05:26:11.449Z,28.37
2023-02-21T05:28:39.959Z,20.57
2023-02-21T05:31:07.426Z,23.20
2023-02-21T05:33:34.426Z,21.30
2023-02-21T05:36:01.391Z,21.13
2023-02-21T05:38:28.173Z,27.17
2023-02-21T05:40:54.978Z,25.37
2023-02-21T05:43:21.735Z,28.80
2023-02-21T05:45:48.536Z,46.17
2023-02-21T05:48:15.352Z,43.43
2023-02-21T05:50:41.987Z,42.63
2023-02-21T05:53:10.354Z,45.60
2023-02-21T05:55:37.641Z,46.37
2023-02-21T05:58:04.482Z,52.57
2023-02-21T06:00:32.270Z,66.53
2023-02-21T06:02:59.038Z,65.17
2023-02-21T06:05:27.148Z,72.50
2023-02-21T06:07:53.868Z,59.33
2023-02-21T06:10:21.905Z,110.97
2023-02-21T06:12:48.614Z,62.80
2023-02-21T06:15:15.515Z,54.13
2023-02-21T06:17:43.071Z,48.73
2023-02-21T06:20:15.308Z,117.90
2023-02-21T06:22:42.194Z,51.70
2023-02-21T06:25:09.365Z,81.97
2023-02-21T06:27:36.543Z,67.13
2023-02-21T06:30:05.014Z,62.30
2023-02-21T06:32:31.806Z,55.83
2023-02-21T06:34:58.654Z,53.20
2023-02-21T06:37:25.380Z,57.10
2023-02-21T06:39:52.265Z,69.73
2023-02-21T06:42:19.547Z,66.65
2023-02-21T06:44:47.795Z,56.08
2023-02-21T06:47:14.676Z,51.95
2023-02-21T06:49:41.506Z,53.63
2023-02-21T06:52:09.512Z,52.95
2023-02-21T06:54:36.788Z,47.25
2023-02-21T06:57:03.680Z,49.30
2023-02-21T06:59:30.404Z,52.83
2023-02-21T07:01:58.001Z,57.28
2023-02-21T07:04:25.820Z,58.67
2023-02-21T07:06:52.928Z,48.45
2023-02-21T07:09:19.752Z,52.22
2023-02-21T07:11:47.212Z,50.88
2023-02-21T07:14:14.478Z,53.53
2023-02-21T07:16:41.206Z,53.45
2023-02-21T07:19:07.864Z,62.83
2023-02-21T07:21:34.628Z,57.10
2023-02-21T07:24:01.365Z,51.63
2023-02-21T07:26:29.063Z,50.80
2023-02-21T07:28:55.814Z,29.38
2023-02-21T07:31:22.943Z,32.33
2023-02-21T07:33:49.893Z,28.25
2023-02-21T07:36:16.996Z,26.05
2023-02-21T07:38:43.762Z,22.05
2023-02-21T07:41:10.966Z,22.55
2023-02-21T07:43:39.256Z,53.30
2023-02-21T07:46:13.844Z,49.80
2023-02-21T07:48:40.789Z,50.17
2023-02-21T07:51:08.898Z,44.45
2023-02-21T07:53:35.591Z,31.60
2023-02-21T07:56:03.867Z,28.38
2023-02-21T07:58:32.505Z,29.02
2023-02-21T08:00:59.296Z,29.63
2023-02-21T08:03:26.058Z,24.25
2023-02-21T08:05:52.782Z,21.65
2023-02-21T08:08:19.510Z,12.30
2023-02-21T08:10:46.219Z,13.63
2023-02-21T08:13:12.884Z,10.63
2023-02-21T08:15:39.584Z,11.32
2023-02-21T08:18:06.576Z,16.27
2023-02-21T08:20:33.584Z,15.35
2023-02-21T08:23:00.307Z,17.58
2023-02-21T08:25:27.042Z,39.75
2023-02-21T08:27:55.442Z,29.55
2023-02-21T08:30:22.618Z,30.73
2023-02-21T08:32:51.286Z,30.45
2023-02-21T08:35:20.128Z,20.70
2023-02-21T08:37:50.654Z,22.27
2023-02-21T08:40:20.985Z,20.85
2023-02-21T08:42:52.641Z,19.55
2023-02-21T08:45:21.532Z,17.90
2023-02-21T08:47:49.049Z,15.57
2023-02-21T08:50:16.352Z,15.02
2023-02-21T08:52:43.095Z,11.85
2023-02-21T08:55:09.723Z,10.68
2023-02-21T08:57:36.544Z,11.63
2023-02-21T09:00:06.590Z,11.45
2023-02-21T09:02:33.259Z,11.95
2023-02-21T09:04:59.963Z,10.70
2023-02-21T09:07:28.732Z,10.68
2023-02-21T09:09:55.447Z,8.75
2023-02-21T09:12:22.261Z,9.10
2023-02-21T09:14:48.900Z,9.13
2023-02-21T09:17:16.723Z,8.98
2023-02-21T09:19:44.819Z,7.43
2023-02-21T09:22:11.817Z,11.65
2023-02-21T09:24:38.973Z,4.80
2023-02-21T09:27:06.793Z,1.77
2023-02-21T09:29:45.464Z,5.22
2023-02-21T09:32:13.508Z,2.53
2023-02-21T09:34:40.258Z,2.63
2023-02-21T09:37:07.277Z,4.57
2023-02-21T09:39:34.059Z,2.17
2023-02-21T09:42:00.849Z,2.40
2023-02-21T09:44:29.549Z,1.65
2023-02-21T09:47:00.433Z,1.45
2023-02-21T09:49:35.380Z,2.35
2023-02-21T09:52:03.097Z,1.40
2023-02-21T09:54:39.077Z,1.13
2023-02-21T09:57:11.567Z,1.40
2023-02-21T09:59:38.190Z,2.22
2023-02-21T10:02:11.118Z,2.50
2023-02-21T10:05:03.213Z,1.52
2023-02-21T10:07:48.603Z,1.60
2023-02-21T10:12:54.756Z,1.67
2023-02-21T10:15:38.723Z,1.40
2023-02-21T10:18:35.624Z,1.13
2023-02-21T10:21:09.423Z,1.60
2023-02-21T10:23:43.473Z,1.48
2023-02-21T10:26:14.301Z,1.48
2023-02-21T10:28:41.012Z,1.73
2023-02-21T10:31:39.635Z,0.90
2023-02-21T10:34:15.612Z,0.63
2023-02-21T10:36:42.244Z,1.30
2023-02-21T10:39:23.076Z,0.95
2023-02-21T10:41:50.876Z,1.40
2023-02-21T10:44:27.202Z,1.13
2023-02-21T10:47:14.387Z,1.17
2023-02-21T10:50:00.107Z,1.55
2023-02-21T10:52:27.574Z,0.40
2023-02-21T10:55:31.337Z,0.60
2023-02-21T10:58:05.874Z,0.50
2023-02-21T11:00:34.832Z,0.40
2023-02-21T11:03:13.412Z,0.65
2023-02-21T11:05:40.428Z,1.02
2023-02-21T11:08:09.465Z,0.80
2023-02-21T11:10:42.484Z,0.65
2023-02-21T11:13:22.309Z,0.90
2023-02-21T11:16:08.356Z,0.77
2023-02-21T11:18:35.051Z,0.50
2023-02-21T11:21:14.264Z,0.70
2023-02-21T11:23:59.072Z,0.70
2023-02-21T11:26:26.016Z,0.82
2023-02-21T11:28:53.262Z,0.65
2023-02-21T11:31:31.380Z,0.73
2023-02-21T11:34:01.150Z,0.55
2023-02-21T11:36:52.725Z,0.80
2023-02-21T11:39:33.100Z,1.40
2023-02-21T11:42:05.008Z,1.13
2023-02-21T11:44:40.977Z,1.10
2023-02-21T11:47:28.265Z,1.42
2023-02-21T11:50:05.870Z,1.58
2023-02-21T11:52:51.189Z,0.80
2023-02-21T11:55:26.211Z,0.70
2023-02-21T11:58:31.891Z,1.30
2023-02-21T12:01:06.732Z,0.70
2023-02-21T12:04:00.963Z,0.70
2023-02-21T12:06:52.982Z,0.80
2023-02-21T12:09:25.454Z,0.90
2023-02-21T12:12:15.459Z,1.10
2023-02-21T12:15:21.654Z,0.75
2023-02-21T12:17:52.518Z,0.50
2023-02-21T12:20:38.648Z,1.10
2023-02-21T12:23:28.794Z,3.17
2023-02-21T12:26:34.212Z,1.02
2023-02-21T12:29:38.104Z,0.70
2023-02-21T12:32:23.312Z,0.73
2023-02-21T12:35:03.372Z,0.82
2023-02-21T12:37:56.908Z,0.90
2023-02-21T12:40:42.411Z,0.82
2023-02-21T12:43:27.780Z,0.60
2023-02-21T12:46:01.847Z,0.70
2023-02-21T12:48:34.838Z,1.10
2023-02-21T12:51:11.910Z,0.90
2023-02-21T12:54:03.306Z,1.00
2023-02-21T12:56:36.966Z,0.98
2023-02-21T12:59:15.606Z,0.70
2023-02-21T13:01:56.716Z,0.98
2023-02-21T13:04:37.327Z,0.90
2023-02-21T13:07:25.807Z,0.50
2023-02-21T13:10:05.631Z,0.85
2023-02-21T13:12:40.371Z,0.63
2023-02-21T13:15:21.918Z,0.65
2023-02-21T13:18:08.066Z,0.70
2023-02-21T13:20:42.622Z,0.90
2023-02-21T13:23:51.659Z,0.95
2023-02-21T13:26:37.304Z,0.80
2023-02-21T13:31:43.232Z,0.60
2023-02-21T13:34:18.108Z,1.15
2023-02-21T13:36:47.158Z,1.10
2023-02-21T13:39:19.344Z,0.90
2023-02-21T13:41:51.603Z,1.00
2023-02-21T13:44:44.671Z,1.00
2023-02-21T13:47:17.476Z,0.60
2023-02-21T13:49:50.905Z,0.90
2023-02-21T13:52:23.472Z,0.77
2023-02-21T13:55:15.099Z,0.95
2023-02-21T13:57:44.009Z,1.25
2023-02-21T14:00:26.574Z,1.05
2023-02-21T14:03:04.128Z,2.47
2023-02-21T14:05:53.911Z,1.10
2023-02-21T14:08:29.761Z,1.20
2023-02-21T14:11:02.457Z,1.15
2023-02-21T14:13:39.105Z,1.25
2023-02-21T14:16:09.179Z,1.10
2023-02-21T14:18:38.673Z,1.50
2023-02-21T14:21:20.436Z,1.20
2023-02-21T14:23:51.259Z,1.00
2023-02-21T14:26:51.550Z,1.30
2023-02-21T14:29:44.071Z,1.20
2023-02-21T14:32:10.859Z,1.13
2023-02-21T14:34:39.578Z,1.50
2023-02-21T14:37:30.521Z,1.55
2023-02-21T14:40:10.997Z,1.85
2023-02-21T14:42:46.767Z,2.67
2023-02-21T14:45:14.311Z,3.15
2023-02-21T14:47:46.745Z,3.55
2023-02-21T14:50:51.288Z,5.05
2023-02-21T14:53:20.662Z,1.95
2023-02-21T14:56:16.419Z,4.35
2023-02-21T15:01:53.183Z,2.38
2023-02-21T15:04:30.114Z,3.75
2023-02-21T15:07:45.686Z,1.63
2023-02-21T15:10:27.391Z,3.15
2023-02-21T15:13:01.159Z,6.32
2023-02-21T15:15:38.298Z,5.57
2023-02-21T15:18:08.208Z,13.30
2023-02-21T15:20:38.310Z,15.45
2023-02-21T15:23:29.607Z,13.75
2023-02-21T15:25:59.148Z,13.65
2023-02-21T15:28:29.102Z,18.90
2023-02-21T15:31:02.408Z,17.58
2023-02-21T15:33:41.539Z,20.65
2023-02-21T15:36:21.808Z,24.65
2023-02-21T15:38:59.774Z,24.67
2023-02-21T15:41:29.378Z,22.73
2023-02-21T15:44:17.862Z,23.55
2023-02-21T15:46:53.624Z,20.60
2023-02-21T15:49:24.831Z,26.92
2023-02-21T15:51:51.764Z,17.85
2023-02-21T15:54:18.327Z,21.90
2023-02-21T15:56:45.690Z,24.65
2023-02-21T15:59:24.934Z,24.15
2023-02-21T16:02:27.710Z,43.88
2023-02-21T16:04:54.502Z,33.42
2023-02-21T16:07:23.775Z,26.00
2023-02-21T16:09:58.081Z,16.40
2023-02-21T16:12:43.972Z,20.80
2023-02-21T16:15:32.994Z,24.90
2023-02-21T16:18:11.030Z,33.72
2023-02-21T16:20:41.903Z,32.45
2023-02-21T16:23:14.599Z,29.77
2023-02-21T16:25:59.882Z,31.45
2023-02-21T16:28:27.608Z,35.80
2023-02-21T16:30:58.636Z,29.20
2023-02-21T16:33:26.395Z,38.05
2023-02-21T16:35:53.223Z,34.95
2023-02-21T16:38:21.797Z,46.53
2023-02-21T16:40:48.604Z,33.08
2023-02-21T16:43:27.963Z,38.20
2023-02-21T16:45:57.501Z,35.72
2023-02-21T16:48:28.810Z,37.92
2023-02-21T16:50:55.656Z,33.90
2023-02-21T16:53:22.870Z,31.02
2023-02-21T16:55:51.033Z,37.28
2023-02-21T16:58:31.836Z,36.22
2023-02-21T17:01:07.676Z,30.77
2023-02-21T17:03:34.376Z,23.25
2023-02-21T17:06:01.605Z,35.83
2023-02-21T17:08:28.646Z,27.65
2023-02-21T17:10:57.133Z,30.77
2023-02-21T17:13:24.876Z,35.30
2023-02-21T17:15:54.424Z,36.38
2023-02-21T17:18:21.699Z,50.95
2023-02-21T17:20:48.371Z,60.08
2023-02-21T17:23:15.125Z,50.75
2023-02-21T17:25:41.868Z,50.97
2023-02-21T17:28:08.733Z,50.72
2023-02-21T17:30:35.381Z,41.95
2023-02-21T17:33:02.163Z,33.55
2023-02-21T17:35:29.532Z,78.03
2023-02-21T17:37:56.318Z,31.63
2023-02-21T17:40:23.087Z,42.47
2023-02-21T17:42:50.071Z,56.72
2023-02-21T17:45:19.423Z,60.65
2023-02-21T17:47:46.267Z,33.55
2023-02-21T17:50:14.000Z,75.57
2023-02-21T17:52:41.610Z,62.80
2023-02-21T17:55:11.079Z,32.17
2023-02-21T17:57:40.679Z,33.60
2023-02-21T18:00:21.344Z,26.33
2023-02-21T18:02:48.988Z,25.50
2023-02-21T18:05:16.062Z,27.77
2023-02-21T18:07:46.670Z,30.15
2023-02-21T18:10:13.481Z,29.20
2023-02-21T18:12:40.270Z,34.38
2023-02-21T18:15:07.496Z,30.65
2023-02-21T18:17:34.243Z,38.00
2023-02-21T18:20:01.349Z,35.47
2023-02-21T18:22:28.042Z,31.83
2023-02-21T18:24:54.754Z,31.92
2023-02-21T18:27:22.763Z,49.55
2023-02-21T18:29:54.489Z,40.72
2023-02-21T18:32:21.287Z,75.95
2023-02-21T18:34:48.344Z,73.32
2023-02-21T18:37:15.171Z,68.13
2023-02-21T18:39:42.135Z,74.05
2023-02-21T18:42:08.933Z,74.50
2023-02-21T18:44:35.557Z,82.03
2023-02-21T18:47:02.508Z,49.90
2023-02-21T18:49:34.166Z,57.78
2023-02-21T18:52:03.915Z,60.30
2023-02-21T18:54:30.598Z,89.55
2023-02-21T18:56:57.323Z,62.40
2023-02-21T18:59:24.049Z,69.55
2023-02-21T19:01:52.420Z,41.60
2023-02-21T19:04:19.788Z,42.08
2023-02-21T19:06:46.888Z,47.75
2023-02-21T19:09:13.754Z,42.45
2023-02-21T19:11:40.440Z,57.25
2023-02-21T19:14:07.154Z,46.55
2023-02-21T19:16:34.102Z,45.72
2023-02-21T19:19:03.474Z,51.97
2023-02-21T19:21:30.807Z,61.33
2023-02-21T19:23:58.301Z,52.80
2023-02-21T19:26:29.611Z,100.55
2023-02-21T19:28:56.677Z,83.93
2023-02-21T19:31:23.508Z,110.65
2023-02-21T19:33:50.312Z,105.68
2023-02-21T19:36:17.222Z,57.58
2023-02-21T19:38:43.932Z,73.55
2023-02-21T19:41:10.785Z,65.03
2023-02-21T19:43:37.893Z,61.90
2023-02-21T19:46:05.355Z,65.05
2023-02-21T19:48:32.105Z,94.13
2023-02-21T19:50:58.857Z,114.97
2023-02-21T19:53:25.680Z,147.40
2023-02-21T19:55:52.395Z,120.75
2023-02-21T19:58:20.007Z,52.50
2023-02-21T20:00:47.181Z,36.53
2023-02-21T20:03:15.200Z,41.58
2023-02-21T20:05:41.885Z,29.27
2023-02-21T20:08:08.578Z,26.83
2023-02-21T20:10:35.454Z,42.30
2023-02-21T20:13:06.332Z,40.67
2023-02-21T20:15:35.487Z,35.08
2023-02-21T20:18:03.746Z,40.63
2023-02-21T20:20:30.469Z,66.75
2023-02-21T20:22:58.256Z,49.53
2023-02-21T20:25:25.203Z,58.20
2023-02-21T20:27:51.947Z,54.13
2023-02-21T20:30:18.741Z,49.28
2023-02-21T20:32:45.449Z,53.20
2023-02-21T20:35:13.329Z,52.78
2023-02-21T20:37:40.189Z,83.07
2023-02-21T20:40:10.324Z,41.15
2023-02-21T20:42:37.502Z,17.55
2023-02-21T20:45:04.579Z,16.17
2023-02-21T20:47:31.321Z,18.60
2023-02-21T20:49:58.128Z,25.30
2023-02-21T20:52:24.823Z,48.97
2023-02-21T20:54:51.838Z,49.13
2023-02-21T20:57:18.730Z,45.20
2023-02-21T20:59:46.282Z,55.30
2023-02-21T21:02:13.721Z,61.70
2023-02-21T21:04:43.295Z,63.55
2023-02-21T21:07:19.663Z,69.68
2023-02-21T21:09:47.613Z,52.33
2023-02-21T21:12:18.429Z,29.65
2023-02-21T21:14:48.075Z,31.27
2023-02-21T21:17:18.239Z,33.35
2023-02-21T21:19:48.005Z,36.38
2023-02-21T21:22:18.414Z,35.95
2023-02-21T21:24:45.514Z,40.25
2023-02-21T21:27:15.394Z,58.47
2023-02-21T21:29:44.092Z,55.90
2023-02-21T21:32:13.962Z,44.13
2023-02-21T21:34:45.568Z,24.65
2023-02-21T21:37:13.146Z,17.73
2023-02-21T21:39:44.045Z,19.10
2023-02-21T21:42:11.075Z,23.85
2023-02-21T21:44:44.065Z,25.08
2023-02-21T21:47:10.718Z,24.70
2023-02-21T21:49:37.600Z,24.58
2023-02-21T21:52:04.978Z,30.88
2023-02-21T21:54:36.081Z,29.45
2023-02-21T21:57:04.575Z,22.52
2023-02-21T21:59:32.678Z,26.50
2023-02-21T22:01:59.802Z,30.83
2023-02-21T22:04:29.581Z,30.02
2023-02-21T22:06:57.004Z,15.05
2023-02-21T22:09:25.602Z,22.58
2023-02-21T22:11:53.122Z,19.63
2023-02-21T22:14:25.020Z,15.65
2023-02-21T22:16:53.195Z,24.13
2023-02-21T22:19:22.670Z,24.48
2023-02-21T22:21:49.647Z,18.58
2023-02-21T22:24:20.791Z,16.52
2023-02-21T22:26:48.385Z,14.98
2023-02-21T22:29:16.793Z,17.95
2023-02-21T22:31:47.564Z,21.40
2023-02-21T22:34:25.276Z,21.35
2023-02-21T22:36:55.000Z,22.65
2023-02-21T22:39:23.294Z,32.10
2023-02-21T22:41:50.727Z,27.70
2023-02-21T22:44:23.915Z,22.35
2023-02-21T22:46:58.251Z,19.80
2023-02-21T22:49:30.695Z,19.20
2023-02-21T22:52:00.067Z,21.13
2023-02-21T22:54:26.986Z,23.92
2023-02-21T22:56:55.090Z,22.97
2023-02-21T22:59:26.222Z,24.52
2023-02-21T23:01:53.878Z,23.98
2023-02-21T23:04:25.890Z,23.85
2023-02-21T23:06:58.540Z,22.13
2023-02-21T23:09:27.691Z,16.40
2023-02-21T23:11:58.389Z,13.57
2023-02-21T23:14:26.309Z,14.63
2023-02-21T23:16:57.501Z,13.40
2023-02-21T23:19:25.709Z,15.90
2023-02-21T23:21:53.431Z,15.40
2023-02-21T23:24:22.055Z,17.97
2023-02-21T23:26:50.142Z,18.50
2023-02-21T23:29:26.358Z,16.60
2023-02-21T23:31:57.737Z,15.23
2023-02-21T23:34:40.177Z,13.90
2023-02-21T23:37:09.012Z,17.30
2023-02-21T23:39:35.986Z,14.73
2023-02-21T23:42:02.704Z,42.33
2023-02-21T23:44:29.421Z,39.40
2023-02-21T23:46:56.148Z,22.07
2023-02-21T23:49:24.504Z,30.60
2023-02-21T23:51:53.755Z,25.27
2023-02-21T23:54:21.218Z,23.70
2023-02-21T23:56:49.129Z,51.33
2023-02-21T23:59:16.630Z,51.93
